Sigfox identifier Datetime Temperature Humidity SNR
0038678A 2018-10-09 09:22:39 20.7 39 11.2
0038678A 2018-10-09 08:18:05 20.7 40 11.2
0038678A 2018-10-09 07:13:35 20.7 39 11
0038678A 2018-10-09 06:09:04 20.6 39 10.8
0038678A 2018-10-09 05:04:35 20.6 39 10.7
0038678A 2018-10-09 01:50:53 20.6 39 9.9
0038678A 2018-10-09 00:46:21 20.6 39 9.9
0038678A 2018-10-08 23:41:49 20.6 39 10.3
0038678A 2018-10-08 22:37:11 20.6 39 10.7
0038678A 2018-10-08 21:32:40 20.6 39 10.6
0038678A 2018-10-08 20:28:04 20.6 39 10.2
0038678A 2018-10-08 19:23:33 20.6 39 10.4
0038678A 2018-10-08 18:19:02 20.4 39 10.3
0038678A 2018-10-08 16:10:00 20.4 39 10.2
0038678A 2018-10-08 00:02:05 20.6 40 10.2
0038678A 2018-10-07 22:57:26 20.6 40 10.3
0038678A 2018-10-07 20:48:25 20.6 40 10.4
0038678A 2018-10-07 16:30:10 20.6 40 10.4
0038678A 2018-10-07 15:25:39 20.6 40 10.7
0038678A 2018-10-07 13:16:30 20.6 40 10.8
0038678A 2018-10-07 02:30:49 20.8 40 11.8
0038678A 2018-10-07 00:21:41 20.9 40 12.1
0038678A 2018-10-06 23:17:12 20.9 40 12.4
0038678A 2018-10-06 20:03:29 21 40 12.4
0038678A 2018-10-06 18:59:01 20.9 40 12.9
0038678A 2018-10-06 16:49:53 21 40 12.9
0038678A 2018-10-06 15:45:21 21 40 17.7
0038678A 2018-10-06 14:40:49 21 40 17.7
0038678A 2018-10-06 09:18:06 21 40 17.7
0038678A 2018-10-06 03:55:26 21.1 40 17.8
0038678A 2018-10-05 21:28:10 21.2 40 18
0038678A 2018-10-05 13:55:42 21 38 18.1
0038678A 2018-10-05 10:41:49 20.8 33 18.2
0038678A 2018-10-05 09:37:12 20.7 33 18.1
0038678A 2018-10-05 08:32:33 20.7 33 18.1
0038678A 2018-10-05 07:27:55 20.6 33 18.1
0038678A 2018-10-05 05:18:42 20.8 33 18.1
0038678A 2018-10-05 04:14:03 20.8 33 18.1
0038678A 2018-10-05 03:09:21 20.8 33 18.2
0038678A 2018-10-05 02:04:41 20.8 33 18.2
0038678A 2018-10-05 01:00:00 20.8 33 18.3
0038678A 2018-10-04 22:50:44 20.8 33 19.4
0038678A 2018-10-04 21:45:59 20.8 33 19.6
0038678A 2018-10-04 20:41:21 20.8 33 19.6
0038678A 2018-10-04 18:32:02 20.8 32 19.6
0038678A 2018-10-04 17:27:22 20.8 32 19.6
0038678A 2018-10-04 16:22:43 20.8 32 19.7
0038678A 2018-10-04 15:18:02 20.8 32 19.9
0038678A 2018-10-04 14:13:19 20.7 32 20
0038678A 2018-10-04 13:08:42 20.6 32 20.1
0038678A 2018-10-04 12:04:02 20.6 33 20.3
0038678A 2018-10-04 10:59:20 20.6 33 17.7
0038678A 2018-10-04 09:54:41 20.4 34 17.9
0038678A 2018-10-04 08:50:01 20.4 34 18.1
0038678A 2018-10-04 07:45:21 20.4 36 18.2
0038678A 2018-10-04 06:40:42 20.4 38 18.3
0038678A 2018-10-04 05:36:05 20.4 38 18.3
0038678A 2018-10-04 04:31:19 20.4 38 18.2
0038678A 2018-10-04 03:26:36 20.4 39 18.5
0038678A 2018-10-04 02:21:57 20.5 39 18.8
0038678A 2018-10-04 00:12:35 20.6 40 19.2
0038678A 2018-10-03 23:07:54 20.6 41 19.6
0038678A 2018-10-03 22:03:15 20.6 41 20.1
0038678A 2018-10-03 20:58:37 20.6 42 20.6
0038678A 2018-10-03 19:53:58 20.7 42 21.3
0038678A 2018-10-03 17:44:45 20.8 43 21.9
0038678A 2018-10-03 16:40:04 20.8 44 16
0038678A 2018-10-03 15:35:25 21 45 13.5
0038678A 2018-10-03 14:30:45 21 44 15.1
0038678A 2018-10-03 13:26:08 20.6 54 0